sensor_id;sensor_type;location;lat;lon;timestamp;temperature;humidity
2447;DHT22;26430;48.818;9.244;2023-08-07T00:00:09;12.60;99.90
2447;DHT22;26430;48.818;9.244;2023-08-07T00:02:35;12.60;99.90
2447;DHT22;26430;48.818;9.244;2023-08-07T00:05:01;12.60;99.90
2447;DHT22;26430;48.818;9.244;2023-08-07T00:07:26;12.60;99.90
2447;DHT22;26430;48.818;9.244;2023-08-07T00:09:52;12.60;99.90
2447;DHT22;26430;48.818;9.244;2023-08-07T00:12:18;12.60;99.90
2447;DHT22;26430;48.818;9.244;2023-08-07T00:14:43;12.70;99.90
2447;DHT22;26430;48.818;9.244;2023-08-07T00:17:09;12.70;99.90
2447;DHT22;26430;48.818;9.244;2023-08-07T00:19:34;12.70;99.90
2447;DHT22;26430;48.818;9.244;2023-08-07T00:22:00;12.70;99.90
2447;DHT22;26430;48.818;9.244;2023-08-07T00:24:26;12.80;99.90
2447;DHT22;26430;48.818;9.244;2023-08-07T00:26:51;12.80;99.90
2447;DHT22;26430;48.818;9.244;2023-08-07T00:29:17;12.80;99.90
2447;DHT22;26430;48.818;9.244;2023-08-07T00:31:42;12.70;99.90
2447;DHT22;26430;48.818;9.244;2023-08-07T00:34:08;12.60;99.90
2447;DHT22;26430;48.818;9.244;2023-08-07T00:36:35;12.60;99.90
2447;DHT22;26430;48.818;9.244;2023-08-07T00:39:01;12.60;99.90
2447;DHT22;26430;48.818;9.244;2023-08-07T00:41:29;12.70;99.90
2447;DHT22;26430;48.818;9.244;2023-08-07T00:43:54;12.70;99.90
2447;DHT22;26430;48.818;9.244;2023-08-07T00:46:20;12.60;99.90
2447;DHT22;26430;48.818;9.244;2023-08-07T00:48:46;12.70;99.90
2447;DHT22;26430;48.818;9.244;2023-08-07T00:51:11;12.60;99.90
2447;DHT22;26430;48.818;9.244;2023-08-07T00:53:38;12.70;99.90
2447;DHT22;26430;48.818;9.244;2023-08-07T00:56:05;12.70;99.90
2447;DHT22;26430;48.818;9.244;2023-08-07T00:58:31;12.60;99.90
2447;DHT22;26430;48.818;9.244;2023-08-07T01:00:57;12.60;99.90
2447;DHT22;26430;48.818;9.244;2023-08-07T01:03:23;12.70;99.90
2447;DHT22;26430;48.818;9.244;2023-08-07T01:05:49;12.70;99.90
2447;DHT22;26430;48.818;9.244;2023-08-07T01:08:14;12.70;99.90
2447;DHT22;26430;48.818;9.244;2023-08-07T01:13:46;12.70;99.90
2447;DHT22;26430;48.818;9.244;2023-08-07T01:16:19;12.70;99.90
2447;DHT22;26430;48.818;9.244;2023-08-07T01:18:47;12.70;99.90
2447;DHT22;26430;48.818;9.244;2023-08-07T01:21:18;12.70;99.90
2447;DHT22;26430;48.818;9.244;2023-08-07T01:23:46;12.70;99.90
2447;DHT22;26430;48.818;9.244;2023-08-07T01:26:12;12.80;99.90
2447;DHT22;26430;48.818;9.244;2023-08-07T01:28:42;12.80;99.90
2447;DHT22;26430;48.818;9.244;2023-08-07T01:31:14;12.80;99.90
2447;DHT22;26430;48.818;9.244;2023-08-07T01:33:51;12.70;99.90
2447;DHT22;26430;48.818;9.244;2023-08-07T01:36:20;12.80;99.90
2447;DHT22;26430;48.818;9.244;2023-08-07T01:38:49;12.80;99.90
2447;DHT22;26430;48.818;9.244;2023-08-07T01:41:15;12.80;99.90
2447;DHT22;26430;48.818;9.244;2023-08-07T01:43:41;12.80;99.90
2447;DHT22;26430;48.818;9.244;2023-08-07T01:46:07;12.80;99.90
2447;DHT22;26430;48.818;9.244;2023-08-07T01:48:32;12.70;99.90
2447;DHT22;26430;48.818;9.244;2023-08-07T01:50:58;12.70;99.90
2447;DHT22;26430;48.818;9.244;2023-08-07T01:53:23;12.70;99.90
2447;DHT22;26430;48.818;9.244;2023-08-07T01:55:49;12.80;99.90
2447;DHT22;26430;48.818;9.244;2023-08-07T01:58:14;12.90;99.90
2447;DHT22;26430;48.818;9.244;2023-08-07T02:00:40;12.80;99.90
2447;DHT22;26430;48.818;9.244;2023-08-07T02:03:06;12.80;99.90
2447;DHT22;26430;48.818;9.244;2023-08-07T02:05:31;12.80;99.90
2447;DHT22;26430;48.818;9.244;2023-08-07T02:07:57;12.80;99.90
2447;DHT22;26430;48.818;9.244;2023-08-07T02:10:22;12.80;99.90
2447;DHT22;26430;48.818;9.244;2023-08-07T02:12:49;12.80;99.90
2447;DHT22;26430;48.818;9.244;2023-08-07T02:15:14;12.80;99.90
2447;DHT22;26430;48.818;9.244;2023-08-07T02:17:40;12.80;99.90
2447;DHT22;26430;48.818;9.244;2023-08-07T02:20:07;12.80;99.90
2447;DHT22;26430;48.818;9.244;2023-08-07T02:22:33;12.70;99.90
2447;DHT22;26430;48.818;9.244;2023-08-07T02:24:58;12.80;99.90
2447;DHT22;26430;48.818;9.244;2023-08-07T02:27:24;12.80;99.90
2447;DHT22;26430;48.818;9.244;2023-08-07T02:29:49;12.90;99.90
2447;DHT22;26430;48.818;9.244;2023-08-07T02:32:16;13.00;99.90
2447;DHT22;26430;48.818;9.244;2023-08-07T02:34:42;12.90;99.90
2447;DHT22;26430;48.818;9.244;2023-08-07T02:37:08;12.70;99.90
2447;DHT22;26430;48.818;9.244;2023-08-07T02:39:33;12.70;99.90
2447;DHT22;26430;48.818;9.244;2023-08-07T02:41:59;12.60;99.90
2447;DHT22;26430;48.818;9.244;2023-08-07T02:44:25;12.60;99.90
2447;DHT22;26430;48.818;9.244;2023-08-07T02:46:50;12.70;99.90
2447;DHT22;26430;48.818;9.244;2023-08-07T02:49:16;12.70;99.90
2447;DHT22;26430;48.818;9.244;2023-08-07T02:51:41;12.70;99.90
2447;DHT22;26430;48.818;9.244;2023-08-07T02:54:07;12.70;99.90
2447;DHT22;26430;48.818;9.244;2023-08-07T02:56:32;12.60;99.90
2447;DHT22;26430;48.818;9.244;2023-08-07T02:58:59;12.70;99.90
2447;DHT22;26430;48.818;9.244;2023-08-07T03:01:27;12.70;99.90
2447;DHT22;26430;48.818;9.244;2023-08-07T03:03:53;12.60;99.90
2447;DHT22;26430;48.818;9.244;2023-08-07T03:06:19;12.60;99.90
2447;DHT22;26430;48.818;9.244;2023-08-07T03:08:44;12.50;99.90
2447;DHT22;26430;48.818;9.244;2023-08-07T03:11:10;12.60;99.90
2447;DHT22;26430;48.818;9.244;2023-08-07T03:13:36;12.60;99.90
2447;DHT22;26430;48.818;9.244;2023-08-07T03:16:03;12.60;99.90
2447;DHT22;26430;48.818;9.244;2023-08-07T03:18:29;12.60;99.90
2447;DHT22;26430;48.818;9.244;2023-08-07T03:20:56;12.70;99.90
2447;DHT22;26430;48.818;9.244;2023-08-07T03:23:26;12.70;99.90
2447;DHT22;26430;48.818;9.244;2023-08-07T03:26:10;12.70;99.90
2447;DHT22;26430;48.818;9.244;2023-08-07T03:28:37;12.60;99.90
2447;DHT22;26430;48.818;9.244;2023-08-07T03:31:03;12.60;99.90
2447;DHT22;26430;48.818;9.244;2023-08-07T03:33:29;12.60;99.90
2447;DHT22;26430;48.818;9.244;2023-08-07T03:35:54;12.60;99.90
2447;DHT22;26430;48.818;9.244;2023-08-07T03:38:20;12.60;99.90
2447;DHT22;26430;48.818;9.244;2023-08-07T03:40:46;12.70;99.90
2447;DHT22;26430;48.818;9.244;2023-08-07T03:43:12;12.70;99.90
2447;DHT22;26430;48.818;9.244;2023-08-07T03:45:38;12.70;99.90
2447;DHT22;26430;48.818;9.244;2023-08-07T03:48:04;12.60;99.90
2447;DHT22;26430;48.818;9.244;2023-08-07T03:50:29;12.60;99.90
2447;DHT22;26430;48.818;9.244;2023-08-07T03:52:56;12.60;99.90
2447;DHT22;26430;48.818;9.244;2023-08-07T03:55:22;12.60;99.90
2447;DHT22;26430;48.818;9.244;2023-08-07T03:57:47;12.70;99.90
2447;DHT22;26430;48.818;9.244;2023-08-07T04:00:13;12.70;99.90
2447;DHT22;26430;48.818;9.244;2023-08-07T04:02:39;12.70;99.90
2447;DHT22;26430;48.818;9.244;2023-08-07T04:05:05;12.60;99.90
2447;DHT22;26430;48.818;9.244;2023-08-07T04:07:31;12.70;99.90
2447;DHT22;26430;48.818;9.244;2023-08-07T04:09:56;12.60;99.90
2447;DHT22;26430;48.818;9.244;2023-08-07T04:12:22;12.60;99.90
2447;DHT22;26430;48.818;9.244;2023-08-07T04:14:48;12.70;99.90
2447;DHT22;26430;48.818;9.244;2023-08-07T04:17:13;12.70;99.90
2447;DHT22;26430;48.818;9.244;2023-08-07T04:19:39;12.60;99.90
2447;DHT22;26430;48.818;9.244;2023-08-07T04:22:04;12.70;99.90
2447;DHT22;26430;48.818;9.244;2023-08-07T04:24:30;12.70;99.90
2447;DHT22;26430;48.818;9.244;2023-08-07T04:26:55;12.60;99.90
2447;DHT22;26430;48.818;9.244;2023-08-07T04:29:21;12.70;99.90
2447;DHT22;26430;48.818;9.244;2023-08-07T04:31:47;12.80;99.90
2447;DHT22;26430;48.818;9.244;2023-08-07T04:34:12;12.80;99.90
2447;DHT22;26430;48.818;9.244;2023-08-07T04:36:38;12.80;99.90
2447;DHT22;26430;48.818;9.244;2023-08-07T04:39:03;12.80;99.90
2447;DHT22;26430;48.818;9.244;2023-08-07T04:41:29;12.90;99.90
2447;DHT22;26430;48.818;9.244;2023-08-07T04:43:55;12.80;99.90
2447;DHT22;26430;48.818;9.244;2023-08-07T04:46:20;12.90;99.90
2447;DHT22;26430;48.818;9.244;2023-08-07T04:48:46;12.90;99.90
2447;DHT22;26430;48.818;9.244;2023-08-07T04:51:13;12.80;99.90
2447;DHT22;26430;48.818;9.244;2023-08-07T04:53:38;12.80;99.90
2447;DHT22;26430;48.818;9.244;2023-08-07T04:56:04;12.80;99.90
2447;DHT22;26430;48.818;9.244;2023-08-07T04:58:30;12.90;99.90
2447;DHT22;26430;48.818;9.244;2023-08-07T05:00:56;12.90;99.90
2447;DHT22;26430;48.818;9.244;2023-08-07T05:03:22;12.90;99.90
2447;DHT22;26430;48.818;9.244;2023-08-07T05:05:48;12.90;99.90
2447;DHT22;26430;48.818;9.244;2023-08-07T05:08:13;12.80;99.90
2447;DHT22;26430;48.818;9.244;2023-08-07T05:10:39;12.90;99.90
2447;DHT22;26430;48.818;9.244;2023-08-07T05:13:04;12.90;99.90
2447;DHT22;26430;48.818;9.244;2023-08-07T05:15:30;13.00;99.90
2447;DHT22;26430;48.818;9.244;2023-08-07T05:17:56;12.70;99.90
2447;DHT22;26430;48.818;9.244;2023-08-07T05:20:22;12.80;99.90
2447;DHT22;26430;48.818;9.244;2023-08-07T05:22:48;12.90;99.90
2447;DHT22;26430;48.818;9.244;2023-08-07T05:25:14;12.90;99.90
2447;DHT22;26430;48.818;9.244;2023-08-07T05:27:47;13.00;99.90
2447;DHT22;26430;48.818;9.244;2023-08-07T05:30:13;13.00;99.90
2447;DHT22;26430;48.818;9.244;2023-08-07T05:32:39;13.00;99.90
2447;DHT22;26430;48.818;9.244;2023-08-07T05:35:06;13.00;99.90
2447;DHT22;26430;48.818;9.244;2023-08-07T05:37:32;13.10;99.90
2447;DHT22;26430;48.818;9.244;2023-08-07T05:39:58;13.10;99.90
2447;DHT22;26430;48.818;9.244;2023-08-07T05:42:23;13.00;99.90
2447;DHT22;26430;48.818;9.244;2023-08-07T05:44:49;13.10;99.90
2447;DHT22;26430;48.818;9.244;2023-08-07T05:47:15;13.00;99.90
2447;DHT22;26430;48.818;9.244;2023-08-07T05:49:40;13.00;99.90
2447;DHT22;26430;48.818;9.244;2023-08-07T05:52:06;13.20;99.90
2447;DHT22;26430;48.818;9.244;2023-08-07T05:54:32;13.20;99.90
2447;DHT22;26430;48.818;9.244;2023-08-07T05:56:58;13.20;99.90
2447;DHT22;26430;48.818;9.244;2023-08-07T05:59:23;13.40;99.90
2447;DHT22;26430;48.818;9.244;2023-08-07T06:01:50;13.30;99.90
2447;DHT22;26430;48.818;9.244;2023-08-07T06:04:16;13.20;99.90
2447;DHT22;26430;48.818;9.244;2023-08-07T06:06:42;13.40;99.90
2447;DHT22;26430;48.818;9.244;2023-08-07T06:09:08;13.50;99.90
2447;DHT22;26430;48.818;9.244;2023-08-07T06:11:34;13.50;99.90
2447;DHT22;26430;48.818;9.244;2023-08-07T06:14:00;13.50;99.90
2447;DHT22;26430;48.818;9.244;2023-08-07T06:16:25;13.40;99.90
2447;DHT22;26430;48.818;9.244;2023-08-07T06:18:51;13.60;99.90
2447;DHT22;26430;48.818;9.244;2023-08-07T06:21:17;13.60;99.90
2447;DHT22;26430;48.818;9.244;2023-08-07T06:23:42;13.70;99.90
2447;DHT22;26430;48.818;9.244;2023-08-07T06:26:08;13.60;99.90
2447;DHT22;26430;48.818;9.244;2023-08-07T06:28:34;13.50;99.90
2447;DHT22;26430;48.818;9.244;2023-08-07T06:31:06;13.60;99.90
2447;DHT22;26430;48.818;9.244;2023-08-07T06:33:32;13.60;99.90
2447;DHT22;26430;48.818;9.244;2023-08-07T06:35:58;13.70;99.90
2447;DHT22;26430;48.818;9.244;2023-08-07T06:38:24;13.60;99.90
2447;DHT22;26430;48.818;9.244;2023-08-07T06:40:50;13.70;99.90
2447;DHT22;26430;48.818;9.244;2023-08-07T06:43:15;13.70;99.90
2447;DHT22;26430;48.818;9.244;2023-08-07T06:45:41;13.80;99.90
2447;DHT22;26430;48.818;9.244;2023-08-07T06:48:06;13.90;99.90
2447;DHT22;26430;48.818;9.244;2023-08-07T06:50:32;14.00;99.90
2447;DHT22;26430;48.818;9.244;2023-08-07T06:52:58;14.10;99.90
2447;DHT22;26430;48.818;9.244;2023-08-07T06:55:24;14.00;99.90
2447;DHT22;26430;48.818;9.244;2023-08-07T06:57:49;14.00;99.90
2447;DHT22;26430;48.818;9.244;2023-08-07T07:00:15;14.00;99.90
2447;DHT22;26430;48.818;9.244;2023-08-07T07:02:41;14.10;99.90
2447;DHT22;26430;48.818;9.244;2023-08-07T07:05:07;14.00;99.90
2447;DHT22;26430;48.818;9.244;2023-08-07T07:07:32;14.00;99.90
2447;DHT22;26430;48.818;9.244;2023-08-07T07:09:58;14.20;99.90
2447;DHT22;26430;48.818;9.244;2023-08-07T07:12:26;14.30;99.90
2447;DHT22;26430;48.818;9.244;2023-08-07T07:14:52;14.40;99.90
2447;DHT22;26430;48.818;9.244;2023-08-07T07:17:17;14.40;99.90
2447;DHT22;26430;48.818;9.244;2023-08-07T07:19:43;14.50;99.90
2447;DHT22;26430;48.818;9.244;2023-08-07T07:22:08;14.60;99.90
2447;DHT22;26430;48.818;9.244;2023-08-07T07:24:34;14.60;99.90
2447;DHT22;26430;48.818;9.244;2023-08-07T07:26:59;14.70;99.90
2447;DHT22;26430;48.818;9.244;2023-08-07T07:29:25;14.60;99.90
2447;DHT22;26430;48.818;9.244;2023-08-07T07:31:50;14.60;99.90
2447;DHT22;26430;48.818;9.244;2023-08-07T07:34:16;14.60;99.90
2447;DHT22;26430;48.818;9.244;2023-08-07T07:36:42;14.80;99.90
2447;DHT22;26430;48.818;9.244;2023-08-07T07:39:07;14.80;99.90
2447;DHT22;26430;48.818;9.244;2023-08-07T07:41:33;14.90;99.90
2447;DHT22;26430;48.818;9.244;2023-08-07T07:43:58;15.00;99.90
2447;DHT22;26430;48.818;9.244;2023-08-07T07:46:25;14.90;99.90
2447;DHT22;26430;48.818;9.244;2023-08-07T07:48:51;14.80;99.90
2447;DHT22;26430;48.818;9.244;2023-08-07T07:51:16;14.90;99.90
2447;DHT22;26430;48.818;9.244;2023-08-07T07:53:42;15.00;99.90
2447;DHT22;26430;48.818;9.244;2023-08-07T07:56:07;15.10;99.90
2447;DHT22;26430;48.818;9.244;2023-08-07T07:58:33;15.10;99.90
2447;DHT22;26430;48.818;9.244;2023-08-07T08:00:58;15.20;99.90
2447;DHT22;26430;48.818;9.244;2023-08-07T08:03:24;15.30;99.90
2447;DHT22;26430;48.818;9.244;2023-08-07T08:05:50;15.20;99.90
2447;DHT22;26430;48.818;9.244;2023-08-07T08:08:16;15.10;99.90
2447;DHT22;26430;48.818;9.244;2023-08-07T08:10:43;15.00;99.90
2447;DHT22;26430;48.818;9.244;2023-08-07T08:13:10;15.00;99.90
2447;DHT22;26430;48.818;9.244;2023-08-07T08:15:35;15.10;99.90
2447;DHT22;26430;48.818;9.244;2023-08-07T08:18:01;15.00;99.90
2447;DHT22;26430;48.818;9.244;2023-08-07T08:20:26;15.10;99.90
2447;DHT22;26430;48.818;9.244;2023-08-07T08:22:52;15.10;99.90
2447;DHT22;26430;48.818;9.244;2023-08-07T08:25:17;15.00;99.90
2447;DHT22;26430;48.818;9.244;2023-08-07T08:27:43;14.90;99.90
2447;DHT22;26430;48.818;9.244;2023-08-07T08:30:09;15.10;99.90
2447;DHT22;26430;48.818;9.244;2023-08-07T08:32:35;15.10;99.90
2447;DHT22;26430;48.818;9.244;2023-08-07T08:35:00;15.30;99.90
2447;DHT22;26430;48.818;9.244;2023-08-07T08:37:26;15.30;99.90
2447;DHT22;26430;48.818;9.244;2023-08-07T08:39:52;15.20;99.90
2447;DHT22;26430;48.818;9.244;2023-08-07T08:42:18;15.20;99.90
2447;DHT22;26430;48.818;9.244;2023-08-07T08:44:57;15.20;99.90
2447;DHT22;26430;48.818;9.244;2023-08-07T08:47:26;15.30;99.90
2447;DHT22;26430;48.818;9.244;2023-08-07T08:50:02;15.30;99.90
2447;DHT22;26430;48.818;9.244;2023-08-07T08:52:31;15.50;99.90
2447;DHT22;26430;48.818;9.244;2023-08-07T08:54:59;15.60;99.90
2447;DHT22;26430;48.818;9.244;2023-08-07T08:57:25;15.70;99.90
2447;DHT22;26430;48.818;9.244;2023-08-07T08:59:52;15.70;99.90
2447;DHT22;26430;48.818;9.244;2023-08-07T09:02:17;15.80;99.90
2447;DHT22;26430;48.818;9.244;2023-08-07T09:04:44;16.00;99.90
2447;DHT22;26430;48.818;9.244;2023-08-07T09:07:13;16.10;99.90
2447;DHT22;26430;48.818;9.244;2023-08-07T09:09:40;16.20;99.90
2447;DHT22;26430;48.818;9.244;2023-08-07T09:12:08;16.30;99.90
2447;DHT22;26430;48.818;9.244;2023-08-07T09:14:38;16.50;99.90
2447;DHT22;26430;48.818;9.244;2023-08-07T09:17:06;16.70;99.90
2447;DHT22;26430;48.818;9.244;2023-08-07T09:19:33;16.60;99.90
2447;DHT22;26430;48.818;9.244;2023-08-07T09:21:58;16.70;99.90
2447;DHT22;26430;48.818;9.244;2023-08-07T09:24:24;16.70;99.90
2447;DHT22;26430;48.818;9.244;2023-08-07T09:26:51;16.30;99.90
2447;DHT22;26430;48.818;9.244;2023-08-07T09:29:18;16.40;99.90
2447;DHT22;26430;48.818;9.244;2023-08-07T09:31:45;16.50;99.90
2447;DHT22;26430;48.818;9.244;2023-08-07T09:34:11;16.70;99.90
2447;DHT22;26430;48.818;9.244;2023-08-07T09:36:39;16.70;99.90
2447;DHT22;26430;48.818;9.244;2023-08-07T09:39:06;16.70;99.90
2447;DHT22;26430;48.818;9.244;2023-08-07T09:41:31;16.70;99.90
2447;DHT22;26430;48.818;9.244;2023-08-07T09:43:57;16.80;99.90
2447;DHT22;26430;48.818;9.244;2023-08-07T09:46:25;16.80;99.90
2447;DHT22;26430;48.818;9.244;2023-08-07T09:48:51;16.90;99.90
2447;DHT22;26430;48.818;9.244;2023-08-07T09:51:16;16.80;99.90
2447;DHT22;26430;48.818;9.244;2023-08-07T09:53:42;16.60;99.90
2447;DHT22;26430;48.818;9.244;2023-08-07T09:56:07;16.70;99.90
2447;DHT22;26430;48.818;9.244;2023-08-07T09:58:34;16.70;99.90
2447;DHT22;26430;48.818;9.244;2023-08-07T10:01:02;17.10;99.90
2447;DHT22;26430;48.818;9.244;2023-08-07T10:03:28;17.20;99.90
2447;DHT22;26430;48.818;9.244;2023-08-07T10:05:54;17.10;99.90
2447;DHT22;26430;48.818;9.244;2023-08-07T10:08:21;16.90;99.90
2447;DHT22;26430;48.818;9.244;2023-08-07T10:10:47;16.80;99.90
2447;DHT22;26430;48.818;9.244;2023-08-07T10:13:13;16.80;99.90
2447;DHT22;26430;48.818;9.244;2023-08-07T10:15:40;16.90;99.90
2447;DHT22;26430;48.818;9.244;2023-08-07T10:18:07;17.20;99.90
2447;DHT22;26430;48.818;9.244;2023-08-07T10:20:33;17.40;99.90
2447;DHT22;26430;48.818;9.244;2023-08-07T10:23:03;17.60;99.90
2447;DHT22;26430;48.818;9.244;2023-08-07T10:25:30;17.80;99.90
2447;DHT22;26430;48.818;9.244;2023-08-07T10:27:57;17.80;99.90
2447;DHT22;26430;48.818;9.244;2023-08-07T10:30:26;17.50;99.90
2447;DHT22;26430;48.818;9.244;2023-08-07T10:32:52;17.60;99.90
2447;DHT22;26430;48.818;9.244;2023-08-07T10:35:32;17.30;99.90
2447;DHT22;26430;48.818;9.244;2023-08-07T10:38:08;17.20;99.90
2447;DHT22;26430;48.818;9.244;2023-08-07T10:40:57;16.90;99.90
2447;DHT22;26430;48.818;9.244;2023-08-07T10:43:20;17.00;99.90
2447;DHT22;26430;48.818;9.244;2023-08-07T10:45:48;16.90;99.90
2447;DHT22;26430;48.818;9.244;2023-08-07T10:48:18;17.10;99.90
2447;DHT22;26430;48.818;9.244;2023-08-07T10:51:11;17.10;99.90
2447;DHT22;26430;48.818;9.244;2023-08-07T10:53:40;16.80;99.90
2447;DHT22;26430;48.818;9.244;2023-08-07T10:56:30;16.70;99.90
2447;DHT22;26430;48.818;9.244;2023-08-07T10:58:56;16.80;99.90
2447;DHT22;26430;48.818;9.244;2023-08-07T11:04:14;17.30;99.90
2447;DHT22;26430;48.818;9.244;2023-08-07T11:06:41;17.40;99.90
2447;DHT22;26430;48.818;9.244;2023-08-07T11:09:08;17.60;99.90
2447;DHT22;26430;48.818;9.244;2023-08-07T11:11:47;17.40;99.90
2447;DHT22;26430;48.818;9.244;2023-08-07T11:14:15;17.30;99.90
2447;DHT22;26430;48.818;9.244;2023-08-07T11:16:41;17.00;99.90
2447;DHT22;26430;48.818;9.244;2023-08-07T11:19:08;17.00;99.90
2447;DHT22;26430;48.818;9.244;2023-08-07T11:21:34;16.90;99.90
2447;DHT22;26430;48.818;9.244;2023-08-07T11:24:01;16.70;99.90
2447;DHT22;26430;48.818;9.244;2023-08-07T11:26:26;16.70;99.90
2447;DHT22;26430;48.818;9.244;2023-08-07T11:28:54;16.70;99.90
2447;DHT22;26430;48.818;9.244;2023-08-07T11:31:19;16.70;99.90
2447;DHT22;26430;48.818;9.244;2023-08-07T11:33:45;16.80;99.90
2447;DHT22;26430;48.818;9.244;2023-08-07T11:36:12;16.80;99.90
2447;DHT22;26430;48.818;9.244;2023-08-07T11:38:42;16.90;99.90
2447;DHT22;26430;48.818;9.244;2023-08-07T11:41:10;16.90;99.90
2447;DHT22;26430;48.818;9.244;2023-08-07T11:43:37;16.80;99.90
2447;DHT22;26430;48.818;9.244;2023-08-07T11:46:07;16.90;99.90
2447;DHT22;26430;48.818;9.244;2023-08-07T11:48:35;16.90;99.90
2447;DHT22;26430;48.818;9.244;2023-08-07T11:51:01;16.90;99.90
2447;DHT22;26430;48.818;9.244;2023-08-07T11:53:35;16.70;99.90
2447;DHT22;26430;48.818;9.244;2023-08-07T11:56:11;16.60;99.90
2447;DHT22;26430;48.818;9.244;2023-08-07T11:58:44;16.50;99.90
2447;DHT22;26430;48.818;9.244;2023-08-07T12:01:12;16.50;99.90
2447;DHT22;26430;48.818;9.244;2023-08-07T12:03:49;16.50;99.90
2447;DHT22;26430;48.818;9.244;2023-08-07T12:06:15;16.40;99.90
2447;DHT22;26430;48.818;9.244;2023-08-07T12:08:41;16.40;99.90
2447;DHT22;26430;48.818;9.244;2023-08-07T12:11:09;16.60;99.90
2447;DHT22;26430;48.818;9.244;2023-08-07T12:13:40;16.60;99.90
2447;DHT22;26430;48.818;9.244;2023-08-07T12:16:07;16.50;99.90
2447;DHT22;26430;48.818;9.244;2023-08-07T12:18:34;16.60;99.90
2447;DHT22;26430;48.818;9.244;2023-08-07T12:21:03;16.60;99.90
2447;DHT22;26430;48.818;9.244;2023-08-07T12:23:35;16.80;99.90
2447;DHT22;26430;48.818;9.244;2023-08-07T12:26:01;16.90;99.90
2447;DHT22;26430;48.818;9.244;2023-08-07T12:28:27;17.00;99.90
2447;DHT22;26430;48.818;9.244;2023-08-07T12:30:53;17.10;99.90
2447;DHT22;26430;48.818;9.244;2023-08-07T12:33:19;17.30;99.90
2447;DHT22;26430;48.818;9.244;2023-08-07T12:35:45;17.60;99.90
2447;DHT22;26430;48.818;9.244;2023-08-07T12:38:11;17.30;99.90
2447;DHT22;26430;48.818;9.244;2023-08-07T12:40:39;17.40;99.90
2447;DHT22;26430;48.818;9.244;2023-08-07T12:43:05;17.50;99.90
2447;DHT22;26430;48.818;9.244;2023-08-07T12:45:31;17.40;99.90
2447;DHT22;26430;48.818;9.244;2023-08-07T12:47:57;17.40;99.90
2447;DHT22;26430;48.818;9.244;2023-08-07T12:50:22;17.40;99.90
2447;DHT22;26430;48.818;9.244;2023-08-07T12:52:48;17.40;99.90
2447;DHT22;26430;48.818;9.244;2023-08-07T12:55:13;17.50;99.90
2447;DHT22;26430;48.818;9.244;2023-08-07T12:57:43;17.30;99.90
2447;DHT22;26430;48.818;9.244;2023-08-07T13:00:10;17.40;99.90
2447;DHT22;26430;48.818;9.244;2023-08-07T13:02:40;17.50;99.90
2447;DHT22;26430;48.818;9.244;2023-08-07T13:05:06;17.80;99.90
2447;DHT22;26430;48.818;9.244;2023-08-07T13:07:31;18.00;99.90
2447;DHT22;26430;48.818;9.244;2023-08-07T13:09:57;18.10;99.90
2447;DHT22;26430;48.818;9.244;2023-08-07T13:12:23;18.20;99.90
2447;DHT22;26430;48.818;9.244;2023-08-07T13:14:48;18.00;99.90
2447;DHT22;26430;48.818;9.244;2023-08-07T13:17:14;17.90;99.90
2447;DHT22;26430;48.818;9.244;2023-08-07T13:19:39;17.70;99.90
2447;DHT22;26430;48.818;9.244;2023-08-07T13:22:06;17.70;99.90
2447;DHT22;26430;48.818;9.244;2023-08-07T13:24:32;17.70;99.90
2447;DHT22;26430;48.818;9.244;2023-08-07T13:26:58;17.70;99.90
2447;DHT22;26430;48.818;9.244;2023-08-07T13:29:23;17.60;99.90
2447;DHT22;26430;48.818;9.244;2023-08-07T13:31:50;17.60;99.90
2447;DHT22;26430;48.818;9.244;2023-08-07T13:34:15;17.60;99.90
2447;DHT22;26430;48.818;9.244;2023-08-07T13:36:41;17.60;99.90
2447;DHT22;26430;48.818;9.244;2023-08-07T13:39:07;17.90;99.90
2447;DHT22;26430;48.818;9.244;2023-08-07T13:41:32;17.90;99.90
2447;DHT22;26430;48.818;9.244;2023-08-07T13:43:58;18.30;99.90
2447;DHT22;26430;48.818;9.244;2023-08-07T13:46:25;18.50;99.90
2447;DHT22;26430;48.818;9.244;2023-08-07T13:48:51;18.80;99.90
2447;DHT22;26430;48.818;9.244;2023-08-07T13:51:16;18.90;99.90
2447;DHT22;26430;48.818;9.244;2023-08-07T13:53:43;18.50;99.90
2447;DHT22;26430;48.818;9.244;2023-08-07T13:56:09;18.30;99.90
2447;DHT22;26430;48.818;9.244;2023-08-07T13:58:41;18.10;99.90
2447;DHT22;26430;48.818;9.244;2023-08-07T14:01:07;18.10;99.90
2447;DHT22;26430;48.818;9.244;2023-08-07T14:03:33;18.10;99.90
2447;DHT22;26430;48.818;9.244;2023-08-07T14:06:00;17.90;99.90
2447;DHT22;26430;48.818;9.244;2023-08-07T14:08:25;18.00;99.90
2447;DHT22;26430;48.818;9.244;2023-08-07T14:10:51;18.30;99.90
2447;DHT22;26430;48.818;9.244;2023-08-07T14:13:17;18.10;99.90
2447;DHT22;26430;48.818;9.244;2023-08-07T14:15:42;18.10;99.90
2447;DHT22;26430;48.818;9.244;2023-08-07T14:18:08;17.90;99.90
2447;DHT22;26430;48.818;9.244;2023-08-07T14:20:35;17.80;99.90
2447;DHT22;26430;48.818;9.244;2023-08-07T14:23:00;18.00;99.90
2447;DHT22;26430;48.818;9.244;2023-08-07T14:25:26;18.30;99.90
2447;DHT22;26430;48.818;9.244;2023-08-07T14:27:52;18.70;99.90
2447;DHT22;26430;48.818;9.244;2023-08-07T14:30:19;18.80;99.90
2447;DHT22;26430;48.818;9.244;2023-08-07T14:32:44;18.80;99.90
2447;DHT22;26430;48.818;9.244;2023-08-07T14:35:13;18.60;99.90
2447;DHT22;26430;48.818;9.244;2023-08-07T14:37:39;18.40;99.90
2447;DHT22;26430;48.818;9.244;2023-08-07T14:40:05;18.10;99.90
2447;DHT22;26430;48.818;9.244;2023-08-07T14:42:32;17.90;99.90
2447;DHT22;26430;48.818;9.244;2023-08-07T14:44:57;17.90;99.90
2447;DHT22;26430;48.818;9.244;2023-08-07T14:47:24;18.00;99.90
2447;DHT22;26430;48.818;9.244;2023-08-07T14:49:49;18.20;99.90
2447;DHT22;26430;48.818;9.244;2023-08-07T14:52:15;18.60;99.90
2447;DHT22;26430;48.818;9.244;2023-08-07T14:54:41;19.30;99.90
2447;DHT22;26430;48.818;9.244;2023-08-07T14:57:06;19.70;99.90
2447;DHT22;26430;48.818;9.244;2023-08-07T14:59:32;20.00;99.90
2447;DHT22;26430;48.818;9.244;2023-08-07T15:01:57;20.20;99.90
2447;DHT22;26430;48.818;9.244;2023-08-07T15:04:23;20.30;99.90
2447;DHT22;26430;48.818;9.244;2023-08-07T15:06:48;19.20;99.90
2447;DHT22;26430;48.818;9.244;2023-08-07T15:09:16;19.20;99.90
2447;DHT22;26430;48.818;9.244;2023-08-07T15:11:45;19.10;99.90
2447;DHT22;26430;48.818;9.244;2023-08-07T15:14:12;18.90;99.90
2447;DHT22;26430;48.818;9.244;2023-08-07T15:16:37;18.80;99.90
2447;DHT22;26430;48.818;9.244;2023-08-07T15:19:03;18.60;99.90
2447;DHT22;26430;48.818;9.244;2023-08-07T15:21:29;18.50;99.90
2447;DHT22;26430;48.818;9.244;2023-08-07T15:23:55;18.40;99.90
2447;DHT22;26430;48.818;9.244;2023-08-07T15:26:20;18.20;99.90
2447;DHT22;26430;48.818;9.244;2023-08-07T15:28:46;18.10;99.90
2447;DHT22;26430;48.818;9.244;2023-08-07T15:31:12;18.00;99.90
2447;DHT22;26430;48.818;9.244;2023-08-07T15:33:37;18.00;99.90
2447;DHT22;26430;48.818;9.244;2023-08-07T15:36:03;18.10;99.90
2447;DHT22;26430;48.818;9.244;2023-08-07T15:38:29;18.20;99.90
2447;DHT22;26430;48.818;9.244;2023-08-07T15:40:55;18.30;99.90
2447;DHT22;26430;48.818;9.244;2023-08-07T15:43:21;18.50;99.90
2447;DHT22;26430;48.818;9.244;2023-08-07T15:45:50;18.80;99.90